Time;durP1;ratioP1;P1;durP2;ratioP2;P2;SDS_P1;SDS_P2;PMS_P1;PMS_P2;Temp;Humidity;BMP_temperature;BMP_pressure;BME280_temperature;BME280_humidity;BME280_pressure;Samples;Min_cycle;Max_cycle;Signal;HPM_P1;HPM_P2
2024/04/12 00:01:43;;;;;;;11.38;2.67;;;8.20;99.90;;;;;;5479488;26;19998;-68
2024/04/12 00:04:09;;;;;;;5.80;2.90;;;8.20;99.90;;;;;;5460723;26;20435;-68
2024/04/12 00:06:37;;;;;;;5.00;2.30;;;8.20;99.90;;;;;;5475700;26;20009;-68
2024/04/12 00:09:09;;;;;;;4.43;2.60;;;8.10;99.90;;;;;;5469805;26;19998;-68
2024/04/12 00:11:38;;;;;;;4.13;2.45;;;8.10;99.90;;;;;;5457658;26;19999;-68
2024/04/12 00:14:05;;;;;;;4.03;2.47;;;8.20;99.90;;;;;;5453024;26;20451;-67
2024/04/12 00:16:31;;;;;;;5.30;2.92;;;8.10;99.90;;;;;;5481951;26;20899;-68
2024/04/12 00:19:07;;;;;;;9.75;2.97;;;8.00;99.90;;;;;;5464736;26;20011;-68
2024/04/12 00:21:37;;;;;;;6.97;2.80;;;8.00;99.90;;;;;;5480433;26;20657;-70
2024/04/12 00:24:12;;;;;;;5.88;2.63;;;8.00;99.90;;;;;;5467230;26;19994;-70
2024/04/12 00:26:42;;;;;;;7.95;2.85;;;7.90;99.90;;;;;;5468615;26;20078;-70
2024/04/12 00:29:36;;;;;;;7.60;2.80;;;7.90;99.90;;;;;;5469460;26;20074;-70
2024/04/12 00:32:04;;;;;;;5.50;2.67;;;7.90;99.90;;;;;;5480420;26;20030;-70
2024/04/12 00:34:39;;;;;;;8.10;2.88;;;7.90;99.90;;;;;;5470184;26;19999;-70
2024/04/12 00:37:15;;;;;;;5.55;2.83;;;7.90;99.90;;;;;;5464496;26;19990;-70
2024/04/12 00:39:47;;;;;;;6.85;2.72;;;7.90;99.90;;;;;;5438384;26;20315;-69
2024/04/12 00:42:14;;;;;;;7.10;2.80;;;7.80;99.90;;;;;;5485413;26;20009;-68
2024/04/12 00:44:41;;;;;;;6.72;2.88;;;7.80;99.90;;;;;;5468800;26;20006;-68
2024/04/12 00:47:10;;;;;;;6.93;2.40;;;7.70;99.90;;;;;;5472375;26;20334;-68
2024/04/12 00:49:39;;;;;;;6.63;2.60;;;7.70;99.90;;;;;;5476128;26;19998;-69
2024/04/12 00:52:06;;;;;;;5.63;2.38;;;7.70;99.90;;;;;;5453162;26;20740;-70
2024/04/12 00:54:33;;;;;;;6.85;2.97;;;7.60;99.90;;;;;;5460961;26;19999;-68
2024/04/12 00:56:59;;;;;;;5.60;2.22;;;7.60;99.90;;;;;;5477350;26;20408;-68
2024/04/12 00:59:25;;;;;;;6.47;2.40;;;7.60;99.90;;;;;;5473574;26;20095;-69
2024/04/12 01:01:52;;;;;;;5.88;2.63;;;7.50;99.90;;;;;;5484810;26;20011;-68
2024/04/12 01:04:20;;;;;;;4.28;2.13;;;7.50;99.90;;;;;;5486126;26;20084;-68
2024/04/12 01:06:46;;;;;;;6.60;2.58;;;7.50;99.90;;;;;;5472277;26;20078;-68
2024/04/12 01:09:12;;;;;;;6.10;3.08;;;7.40;99.90;;;;;;5478028;26;20002;-68
2024/04/12 01:11:38;;;;;;;6.75;2.45;;;7.40;99.90;;;;;;5482560;26;20459;-69
2024/04/12 01:14:10;;;;;;;5.15;2.28;;;7.30;99.90;;;;;;5485004;26;20039;-69
2024/04/12 01:16:38;;;;;;;3.78;1.95;;;7.30;99.90;;;;;;5475474;26;20013;-68
2024/04/12 01:19:11;;;;;;;7.72;2.95;;;7.20;99.90;;;;;;5478979;26;20026;-69
2024/04/12 01:21:38;;;;;;;3.35;2.28;;;7.20;99.90;;;;;;5464841;26;20071;-69
2024/04/12 01:24:06;;;;;;;4.18;2.58;;;7.10;99.90;;;;;;5465754;26;20016;-69
2024/04/12 01:26:31;;;;;;;8.48;3.03;;;7.00;99.90;;;;;;5478937;26;19998;-68
2024/04/12 01:28:58;;;;;;;4.75;2.47;;;7.00;99.90;;;;;;5487347;26;19990;-68
2024/04/12 01:31:27;;;;;;;6.35;2.72;;;7.00;99.90;;;;;;5466495;26;19994;-68
2024/04/12 01:33:53;;;;;;;7.10;2.67;;;7.00;99.90;;;;;;5467837;26;20017;-68
2024/04/12 01:36:21;;;;;;;4.40;2.20;;;7.00;99.90;;;;;;5483581;26;20071;-69
2024/04/12 01:38:53;;;;;;;3.47;2.08;;;7.00;99.90;;;;;;5486621;26;20008;-68
2024/04/12 01:41:32;;;;;;;6.18;2.42;;;7.00;99.90;;;;;;5477306;26;20434;-68
2024/04/12 01:44:04;;;;;;;6.85;2.40;;;6.90;99.90;;;;;;5477712;26;19998;-68
2024/04/12 01:46:34;;;;;;;4.90;2.65;;;6.90;99.90;;;;;;5476678;26;20005;-69
2024/04/12 01:49:05;;;;;;;7.18;2.53;;;6.90;99.90;;;;;;5484025;26;20006;-69
2024/04/12 01:51:34;;;;;;;;;;;6.80;99.90;;;;;;5482879;26;19994;-68
2024/04/12 01:54:13;;;;;;;4.80;2.00;;;;;;;;;;5461297;26;19924;-69
2024/04/12 01:56:44;;;;;;;9.60;3.28;;;6.70;99.90;;;;;;5477410;26;20009;-69
2024/04/12 01:59:14;;;;;;;5.05;2.63;;;6.60;99.90;;;;;;5484573;26;20331;-69
2024/04/12 02:01:41;;;;;;;6.03;2.50;;;6.60;99.90;;;;;;5473718;26;20042;-69
2024/04/12 02:04:07;;;;;;;5.32;2.20;;;;;;;;;;5477732;26;20010;-68
2024/04/12 02:06:33;;;;;;;5.55;2.45;;;;;;;;;;5481825;26;20125;-68
2024/04/12 02:09:00;;;;;;;4.65;2.30;;;;;;;;;;5464359;26;20339;-68
2024/04/12 02:11:27;;;;;;;6.47;2.78;;;;;;;;;;5435434;26;20718;-68
2024/04/12 02:13:53;;;;;;;6.82;2.90;;;;;;;;;;5462549;26;20003;-68
2024/04/12 02:16:20;;;;;;;5.78;2.80;;;;;;;;;;5471290;26;20385;-68
2024/04/12 02:18:47;;;;;;;5.20;2.88;;;;;;;;;;5458097;26;20324;-68
2024/04/12 02:21:13;;;;;;;10.23;2.53;;;;;;;;;;5463399;26;19994;-68
2024/04/12 02:23:40;;;;;;;6.93;2.58;;;;;;;;;;5475141;26;19998;-69
2024/04/12 02:26:09;;;;;;;5.75;2.75;;;;;;;;;;5476256;26;20347;-68
2024/04/12 02:28:36;;;;;;;4.80;2.50;;;;;;;;;;5459552;26;20092;-68
2024/04/12 02:31:08;;;;;;;5.18;2.60;;;;;;;;;;5472362;26;19998;-69
2024/04/12 02:33:34;;;;;;;4.55;2.95;;;;;;;;;;5473487;26;20182;-69
2024/04/12 02:36:10;;;;;;;6.43;2.95;;;;;;;;;;5477508;26;20003;-68
2024/04/12 02:38:36;;;;;;;9.63;3.42;;;;;;;;;;5459422;26;20061;-68
2024/04/12 02:41:02;;;;;;;8.25;3.05;;;;;;;;;;5476728;26;20001;-68
2024/04/12 02:43:29;;;;;;;4.97;2.78;;;;;;;;;;5479256;26;19998;-68
2024/04/12 02:45:57;;;;;;;5.47;2.65;;;;;;;;;;5463496;26;20492;-68
2024/04/12 02:48:23;;;;;;;4.65;3.15;;;;;;;;;;5471582;26;19995;-68
2024/04/12 02:50:53;;;;;;;7.28;3.40;;;;;;;;;;5479098;26;20012;-68
2024/04/12 02:53:19;;;;;;;6.57;3.20;;;;;;;;;;5451334;26;20070;-68
2024/04/12 02:55:47;;;;;;;5.40;3.00;;;;;;;;;;5461006;26;20022;-68
2024/04/12 02:58:16;;;;;;;6.15;3.30;;;;;;;;;;5469510;26;20067;-68
2024/04/12 03:00:44;;;;;;;7.53;3.22;;;;;;;;;;5485649;26;20069;-68
2024/04/12 03:03:11;;;;;;;5.50;2.75;;;;;;;;;;5469288;26;20012;-68
2024/04/12 03:05:40;;;;;;;7.07;3.13;;;;;;;;;;5481656;26;20066;-68
2024/04/12 03:08:17;;;;;;;7.82;3.70;;;;;;;;;;5474355;26;19994;-68
2024/04/12 03:10:45;;;;;;;6.68;2.70;;;;;;;;;;5466662;26;20326;-68
2024/04/12 03:13:12;;;;;;;5.55;3.13;;;;;;;;;;5475525;26;20002;-68
2024/04/12 03:15:41;;;;;;;9.27;3.50;;;;;;;;;;5481416;26;20066;-68
2024/04/12 03:18:07;;;;;;;5.15;3.35;;;;;;;;;;5474651;26;20007;-68
2024/04/12 03:20:35;;;;;;;4.97;2.47;;;;;;;;;;5474929;26;20129;-68
2024/04/12 03:23:04;;;;;;;5.88;2.47;;;;;;;;;;5469591;26;20480;-68
2024/04/12 03:25:31;;;;;;;7.63;2.92;;;;;;;;;;5466296;26;20005;-68
2024/04/12 03:27:57;;;;;;;8.75;3.22;;;;;;;;;;5469955;26;20027;-67
2024/04/12 03:30:25;;;;;;;6.90;2.92;;;;;;;;;;5469858;26;20011;-68
2024/04/12 03:32:52;;;;;;;5.57;2.83;;;;;;;;;;5458002;26;20107;-68
2024/04/12 03:35:20;;;;;;;11.18;4.30;;;;;;;;;;5471352;26;20016;-68
2024/04/12 03:40:33;;;;;;;4.57;2.70;;;;;;;;;;5467739;26;20013;-68
2024/04/12 03:43:02;;;;;;;7.75;3.05;;;;;;;;;;5468420;26;19994;-68
2024/04/12 03:45:35;;;;;;;6.00;3.47;;;;;;;;;;5474523;26;20001;-67
2024/04/12 03:48:13;;;;;;;6.53;3.78;;;;;;;;;;5450649;26;20027;-68
2024/04/12 03:50:41;;;;;;;8.43;3.30;;;;;;;;;;5465240;26;20013;-68
2024/04/12 03:53:16;;;;;;;7.90;3.70;;;;;;;;;;5474184;26;20374;-68
2024/04/12 03:55:45;;;;;;;8.57;3.40;;;;;;;;;;5479373;26;20352;-68
2024/04/12 03:58:17;;;;;;;8.57;4.22;;;;;;;;;;5456108;26;20034;-68
2024/04/12 04:00:45;;;;;;;7.78;3.72;;;;;;;;;;5473363;26;19998;-68
2024/04/12 04:03:30;;;;;;;11.02;3.42;;;;;;;;;;5480892;26;20010;-69
2024/04/12 04:05:56;;;;;;;6.28;3.65;;;;;;;;;;5481452;26;20003;-67
2024/04/12 04:08:22;;;;;;;7.78;3.70;;;;;;;;;;5485886;26;20008;-69
2024/04/12 04:10:49;;;;;;;5.18;3.10;;;;;;;;;;5472590;26;20246;-69
2024/04/12 04:13:15;;;;;;;5.25;3.30;;;;;;;;;;5480020;26;19998;-70
2024/04/12 04:15:55;;;;;;;9.57;3.50;;;;;;;;;;5488009;26;20013;-69
2024/04/12 04:18:21;;;;;;;10.27;3.63;;;;;;;;;;5472643;26;20074;-67
2024/04/12 04:20:47;;;;;;;9.77;3.72;;;;;;;;;;5459828;26;20002;-69
2024/04/12 04:23:17;;;;;;;5.82;3.78;;;;;;;;;;5478426;26;20010;-69
2024/04/12 04:25:44;;;;;;;5.63;3.20;;;;;;;;;;5480784;26;20002;-68
2024/04/12 04:28:10;;;;;;;5.72;3.25;;;;;;;;;;5478401;26;19998;-69
2024/04/12 04:30:36;;;;;;;7.25;3.80;;;;;;;;;;5478029;26;20537;-69
2024/04/12 04:33:02;;;;;;;7.47;4.15;;;;;;;;;;5484425;26;20008;-70
2024/04/12 04:35:28;;;;;;;7.10;3.70;;;;;;;;;;5463326;26;19998;-70
2024/04/12 04:37:55;;;;;;;9.00;3.92;;;;;;;;;;5465482;26;20075;-68
2024/04/12 04:40:25;;;;;;;10.77;4.30;;;;;;;;;;5479227;26;20002;-68
2024/04/12 04:42:54;;;;;;;8.63;4.00;;;;;;;;;;5465946;26;20022;-68
2024/04/12 04:45:21;;;;;;;10.23;4.60;;;;;;;;;;5470046;26;20447;-68
2024/04/12 04:47:50;;;;;;;6.22;4.15;;;;;;;;;;5467827;26;20455;-68
2024/04/12 04:50:18;;;;;;;8.35;4.00;;;;;;;;;;5484137;26;19994;-68
2024/04/12 04:52:47;;;;;;;8.35;4.40;;;;;;;;;;5487044;26;20083;-69
2024/04/12 04:55:13;;;;;;;8.63;3.78;;;;;;;;;;5472918;26;20458;-68
2024/04/12 04:57:43;;;;;;;8.85;3.50;;;;;;;;;;5477738;26;20026;-70
2024/04/12 05:00:18;;;;;;;8.98;4.13;;;;;;;;;;5476265;26;19998;-66
2024/04/12 05:02:49;;;;;;;9.48;3.63;;;;;;;;;;5484319;26;19994;-68
2024/04/12 05:05:22;;;;;;;5.78;3.55;;;;;;;;;;5480772;26;20142;-69
2024/04/12 05:07:49;;;;;;;10.38;4.78;;;;;;;;;;5456345;26;20013;-70
2024/04/12 05:10:15;;;;;;;12.07;3.90;;;;;;;;;;5460029;26;20101;-69
2024/04/12 05:12:42;;;;;;;7.13;4.57;;;;;;;;;;5457202;26;20011;-67
2024/04/12 05:15:48;;;;;;;8.60;5.35;;;;;;;;;;5474847;26;20443;-67
2024/04/12 05:18:03;;;;;;;7.30;4.38;;;;;;;;;;5460438;26;19999;-67
2024/04/12 05:20:39;;;;;;;8.02;4.07;;;;;;;;;;5463876;26;20002;-68
2024/04/12 05:23:15;;;;;;;7.55;3.90;;;;;;;;;;5483939;26;19998;-67
2024/04/12 05:25:43;;;;;;;8.25;3.90;;;;;;;;;;5472416;26;19998;-67
2024/04/12 05:28:12;;;;;;;8.57;4.15;;;;;;;;;;5446185;26;20010;-67
2024/04/12 05:30:40;;;;;;;9.73;4.22;;;;;;;;;;5482660;26;20319;-68
2024/04/12 05:33:07;;;;;;;8.20;4.47;;;;;;;;;;5482211;26;19998;-68
2024/04/12 05:35:37;;;;;;;7.35;4.40;;;;;;;;;;5480808;26;20044;-66
2024/04/12 05:38:07;;;;;;;8.20;4.03;;;;;;;;;;5480959;26;20006;-67
2024/04/12 05:40:39;;;;;;;8.60;4.30;;;;;;;;;;5486325;26;20016;-72
2024/04/12 05:43:13;;;;;;;7.80;4.30;;;;;;;;;;5466171;26;20005;-71
2024/04/12 05:45:39;;;;;;;13.50;4.65;;;;;;;;;;5459960;26;20010;-71
2024/04/12 05:48:12;;;;;;;6.70;4.80;;;;;;;;;;5481873;26;19994;-72
2024/04/12 05:50:39;;;;;;;9.15;4.60;;;;;;;;;;5478733;26;20022;-72
2024/04/12 05:53:10;;;;;;;7.72;4.10;;;;;;;;;;5438540;26;20299;-70
2024/04/12 05:55:44;;;;;;;9.57;3.80;;;;;;;;;;5468358;26;19998;-71
2024/04/12 05:58:10;;;;;;;7.30;3.55;;;;;;;;;;5478728;26;20458;-68
2024/04/12 06:00:36;;;;;;;11.25;5.03;;;;;;;;;;5483996;26;19998;-68
2024/04/12 06:03:02;;;;;;;11.50;4.70;;;;;;;;;;5469695;26;20009;-68
2024/04/12 06:05:28;;;;;;;9.13;4.95;;;;;;;;;;5474303;26;20006;-68
2024/04/12 06:07:58;;;;;;;12.40;5.40;;;;;;;;;;5475671;26;20394;-68
2024/04/12 06:10:25;;;;;;;;;;;;;;;;;;5468122;26;20002;-68
2024/04/12 06:12:54;;;;;;;11.85;4.32;;;;;;;;;;5483348;26;19931;-68
2024/04/12 06:15:21;;;;;;;9.82;4.65;;;;;;;;;;5477801;26;20070;-68
2024/04/12 06:17:49;;;;;;;9.38;4.80;;;;;;;;;;5477303;26;20002;-68
2024/04/12 06:20:30;;;;;;;11.18;4.82;;;;;;;;;;5458543;26;20086;-68
2024/04/12 06:22:58;;;;;;;10.25;4.97;;;9.00;99.90;;;;;;5472638;26;19998;-68
2024/04/12 06:25:25;;;;;;;7.18;4.60;;;9.10;99.90;;;;;;5481267;26;20026;-68
2024/04/12 06:27:52;;;;;;;9.32;4.45;;;9.20;99.90;;;;;;5463553;26;20067;-69
2024/04/12 06:30:24;;;;;;;9.55;4.43;;;9.20;99.90;;;;;;5461180;26;20003;-68
2024/04/12 06:32:53;;;;;;;11.13;4.97;;;9.30;99.90;;;;;;5466412;26;20010;-69
2024/04/12 06:35:28;;;;;;;9.43;5.00;;;9.40;99.90;;;;;;5483917;26;20006;-68
2024/04/12 06:37:54;;;;;;;11.13;5.50;;;9.60;99.90;;;;;;5458471;26;20080;-68
2024/04/12 06:40:20;;;;;;;9.80;5.13;;;9.70;99.90;;;;;;5469214;26;20085;-67
2024/04/12 06:42:47;;;;;;;11.40;4.85;;;9.80;99.90;;;;;;5477783;26;20019;-68
2024/04/12 06:45:15;;;;;;;11.73;5.78;;;10.00;99.90;;;;;;5463959;26;20671;-68
2024/04/12 06:47:41;;;;;;;10.38;5.57;;;10.20;99.90;;;;;;5473436;26;20439;-68
2024/04/12 06:50:08;;;;;;;9.23;4.72;;;10.20;99.90;;;;;;5474710;26;19998;-68
2024/04/12 06:52:35;;;;;;;14.27;5.78;;;10.30;99.90;;;;;;5474184;26;20056;-68
2024/04/12 06:55:07;;;;;;;14.18;5.78;;;10.40;99.90;;;;;;5480650;26;20111;-68
2024/04/12 06:57:33;;;;;;;9.98;5.00;;;10.50;99.90;;;;;;5469618;26;20050;-69
2024/04/12 07:00:00;;;;;;;12.70;5.65;;;10.60;99.90;;;;;;5481558;26;19998;-68
2024/04/12 07:02:29;;;;;;;8.27;4.47;;;10.70;99.90;;;;;;5483735;26;20479;-68
2024/04/12 07:04:56;;;;;;;12.77;4.80;;;10.70;99.90;;;;;;5479349;26;19998;-68
2024/04/12 07:07:23;;;;;;;18.50;5.75;;;10.70;99.90;;;;;;5476390;26;20066;-68
2024/04/12 07:09:50;;;;;;;9.75;5.05;;;10.80;99.90;;;;;;5476954;26;20003;-68
2024/04/12 07:12:19;;;;;;;11.23;4.78;;;10.90;99.90;;;;;;5463990;26;20215;-68
2024/04/12 07:14:46;;;;;;;13.13;5.35;;;11.00;99.90;;;;;;5459544;26;20074;-68
2024/04/12 07:17:23;;;;;;;11.23;5.50;;;11.10;99.90;;;;;;5465869;26;20468;-68
2024/04/12 07:19:53;;;;;;;8.40;4.15;;;11.20;99.90;;;;;;5478322;26;20068;-68
2024/04/12 07:22:26;;;;;;;7.18;4.40;;;11.40;99.90;;;;;;5461909;26;20003;-68
2024/04/12 07:24:52;;;;;;;8.63;4.63;;;11.60;99.90;;;;;;5480033;26;20013;-68
2024/04/12 07:27:22;;;;;;;12.90;4.80;;;11.80;99.90;;;;;;5484054;26;20450;-68
2024/04/12 07:29:49;;;;;;;11.93;4.80;;;12.10;99.90;;;;;;5460220;26;20019;-68
2024/04/12 07:32:16;;;;;;;8.38;4.60;;;12.30;99.90;;;;;;5468040;26;19999;-68
2024/04/12 07:34:51;;;;;;;11.93;5.13;;;12.60;99.90;;;;;;5453386;26;20520;-68
2024/04/12 07:37:27;;;;;;;12.00;4.97;;;12.80;99.90;;;;;;5463328;26;20010;-68
2024/04/12 07:40:23;;;;;;;9.05;4.13;;;13.00;99.90;;;;;;5463842;26;20010;-72
2024/04/12 07:42:50;;;;;;;14.75;5.22;;;13.00;99.90;;;;;;5468556;26;19998;-67
2024/04/12 07:45:17;;;;;;;20.70;4.60;;;13.20;99.90;;;;;;5453206;26;19999;-68
2024/04/12 07:47:52;;;;;;;12.85;4.97;;;13.30;99.90;;;;;;5444133;26;20323;-70
2024/04/12 07:50:29;;;;;;;12.15;4.40;;;13.30;99.90;;;;;;5472433;26;19993;-68
2024/04/12 07:53:21;;;;;;;10.73;4.28;;;13.40;99.90;;;;;;5474455;26;19990;-67
2024/04/12 07:56:07;;;;;;;9.55;4.72;;;13.50;99.90;;;;;;5468605;26;19998;-67
2024/04/12 07:58:37;;;;;;;12.02;5.10;;;13.60;99.90;;;;;;5471332;26;20006;-68
2024/04/12 08:01:10;;;;;;;15.05;4.97;;;13.70;99.90;;;;;;5478920;26;20006;-68
2024/04/12 08:04:05;;;;;;;11.95;5.50;;;13.80;99.90;;;;;;5465882;26;20006;-68
2024/04/12 08:06:36;;;;;;;12.63;4.78;;;13.80;99.90;;;;;;5465402;26;20431;-68
2024/04/12 08:09:06;;;;;;;9.48;4.70;;;14.00;99.90;;;;;;5476542;26;19994;-68
2024/04/12 08:11:34;;;;;;;8.75;4.53;;;14.10;99.90;;;;;;5478804;26;20669;-68
2024/04/12 08:14:07;;;;;;;12.05;5.30;;;14.20;99.90;;;;;;5473200;26;20038;-67
2024/04/12 08:16:37;;;;;;;10.52;4.90;;;14.20;99.90;;;;;;5464374;26;20010;-67
2024/04/12 08:19:15;;;;;;;12.20;5.50;;;14.20;99.90;;;;;;5480245;26;20039;-68
2024/04/12 08:21:41;;;;;;;9.90;5.13;;;14.30;99.90;;;;;;5477448;26;19999;-67
2024/04/12 08:24:10;;;;;;;7.75;4.97;;;14.40;99.90;;;;;;5469973;26;20282;-68
2024/04/12 08:26:45;;;;;;;12.50;5.18;;;14.50;99.90;;;;;;5470193;26;20455;-67
2024/04/12 08:29:33;;;;;;;16.35;5.82;;;14.60;99.90;;;;;;5458907;26;20002;-67
2024/04/12 08:32:11;;;;;;;12.18;5.00;;;14.70;99.90;;;;;;5472903;26;20005;-68
2024/04/12 08:34:44;;;;;;;10.15;5.07;;;14.90;99.90;;;;;;5477123;26;19998;-68
2024/04/12 08:37:13;;;;;;;14.15;5.25;;;14.90;99.90;;;;;;5478667;26;20066;-69
2024/04/12 08:39:50;;;;;;;15.60;5.50;;;15.10;99.90;;;;;;5476660;26;19995;-69
2024/04/12 08:42:16;;;;;;;15.98;5.20;;;15.30;99.90;;;;;;5472554;26;19998;-69
2024/04/12 08:44:46;;;;;;;11.13;5.38;;;15.50;99.90;;;;;;5441417;26;19998;-69
2024/04/12 08:47:29;;;;;;;11.50;5.53;;;15.70;99.90;;;;;;5471011;26;20440;-69
2024/04/12 08:50:12;;;;;;;10.80;5.22;;;15.80;99.90;;;;;;5476341;26;20007;-69
2024/04/12 08:52:58;;;;;;;15.63;5.43;;;16.00;99.90;;;;;;5469568;26;20082;-69
2024/04/12 08:55:24;;;;;;;12.05;5.32;;;16.10;99.90;;;;;;5458753;26;20053;-69
2024/04/12 08:57:56;;;;;;;10.80;5.07;;;16.30;99.90;;;;;;5476375;26;20072;-69
2024/04/12 09:00:28;;;;;;;12.93;6.07;;;16.40;99.90;;;;;;5464566;26;20005;-69
2024/04/12 09:02:58;;;;;;;11.05;5.72;;;16.60;99.90;;;;;;5479680;26;20046;-69
2024/04/12 09:05:27;;;;;;;15.93;5.47;;;16.80;99.90;;;;;;5460934;26;20005;-69
2024/04/12 09:07:58;;;;;;;15.35;5.07;;;16.80;99.90;;;;;;5468378;26;20002;-69
2024/04/12 09:10:25;;;;;;;13.43;5.05;;;16.90;99.90;;;;;;5482667;26;20016;-69
2024/04/12 09:12:52;;;;;;;13.98;5.40;;;17.10;99.90;;;;;;5470385;26;20041;-69
2024/04/12 09:15:24;;;;;;;13.75;5.65;;;17.20;99.90;;;;;;5468975;26;20461;-69
2024/04/12 09:17:59;;;;;;;12.05;5.38;;;17.30;99.50;;;;;;5474688;26;20004;-69
2024/04/12 09:20:34;;;;;;;16.15;5.45;;;17.40;99.50;;;;;;5471437;26;20502;-68
2024/04/12 09:23:19;;;;;;;23.63;5.88;;;17.70;99.90;;;;;;5459712;26;20003;-69
2024/04/12 09:25:54;;;;;;;13.75;6.97;;;17.70;99.50;;;;;;5453495;26;20071;-69
2024/04/12 09:28:37;;;;;;;10.25;5.97;;;17.80;98.70;;;;;;5467888;26;20014;-68
2024/04/12 09:33:56;;;;;;;12.15;5.40;;;18.00;98.30;;;;;;5478703;26;20009;-68
2024/04/12 09:36:44;;;;;;;15.35;5.85;;;18.00;98.20;;;;;;5484503;26;19998;-69
2024/04/12 09:39:16;;;;;;;13.98;5.75;;;18.10;98.30;;;;;;5465183;26;19994;-69
2024/04/12 09:41:53;;;;;;;16.13;6.72;;;18.00;98.20;;;;;;5466285;26;20003;-69
2024/04/12 09:44:27;;;;;;;12.32;6.00;;;18.10;97.70;;;;;;5465260;26;20023;-70
2024/04/12 10:37:28;;;;;;;9.55;5.20;;;20.30;92.60;;;;;;5482291;26;20364;-68
2024/04/12 10:39:55;;;;;;;7.15;4.60;;;20.50;92.00;;;;;;5459234;26;20003;-69
2024/04/12 10:42:30;;;;;;;10.70;5.18;;;20.60;91.90;;;;;;5477650;26;20005;-69
2024/04/12 10:44:59;;;;;;;11.23;5.22;;;20.80;91.50;;;;;;5450844;26;19999;-69
2024/04/12 10:47:25;;;;;;;8.35;5.78;;;21.20;91.30;;;;;;5458540;26;20316;-68
2024/04/12 10:49:51;;;;;;;17.45;6.47;;;21.50;90.70;;;;;;5466057;26;20006;-69
2024/04/12 10:52:28;;;;;;;8.85;5.57;;;21.80;90.10;;;;;;5467039;26;19998;-68
2024/04/12 10:54:57;;;;;;;14.63;5.93;;;22.10;89.50;;;;;;5464198;26;19999;-68
2024/04/12 10:57:23;;;;;;;9.20;5.90;;;22.30;88.60;;;;;;5464908;26;19994;-68
2024/04/12 10:59:51;;;;;;;9.85;5.40;;;22.40;88.20;;;;;;5475028;26;20687;-68
2024/04/12 11:02:18;;;;;;;15.32;5.63;;;22.60;87.30;;;;;;5467197;26;20440;-68
2024/04/12 11:07:28;;;;;;;10.60;6.43;;;22.90;86.50;;;;;;5466934;26;20014;-68
2024/04/12 11:10:03;;;;;;;12.52;6.25;;;23.10;84.40;;;;;;5484287;26;20002;-69
2024/04/12 11:12:39;;;;;;;13.07;6.43;;;23.00;83.50;;;;;;5473617;26;19998;-68
2024/04/12 11:31:53;;;;;;;22.10;6.07;;;22.50;83.50;;;;;;5460920;26;20006;-69
2024/04/12 11:34:20;;;;;;;13.82;5.30;;;22.80;84.10;;;;;;5474563;26;19998;-69
2024/04/12 11:36:46;;;;;;;12.10;6.05;;;22.90;83.00;;;;;;5483733;26;20009;-69
2024/04/12 11:39:18;;;;;;;15.60;5.20;;;23.00;82.80;;;;;;5464331;26;20376;-68
2024/04/12 11:41:47;;;;;;;14.85;5.82;;;23.00;82.00;;;;;;5466752;26;19991;-69
2024/04/12 11:44:17;;;;;;;12.40;5.97;;;23.00;82.10;;;;;;5467840;26;20006;-68
2024/04/12 11:46:48;;;;;;;13.63;6.03;;;23.00;81.70;;;;;;5457772;26;20002;-69
2024/04/12 11:49:24;;;;;;;16.50;6.40;;;23.20;81.00;;;;;;5458590;26;20010;-69
2024/04/12 11:52:02;;;;;;;10.95;6.03;;;23.40;80.70;;;;;;5483888;26;20452;-69
2024/04/12 11:54:29;;;;;;;10.20;6.30;;;23.40;80.20;;;;;;5469973;26;19995;-68
2024/04/12 11:57:05;;;;;;;10.20;5.43;;;23.20;80.20;;;;;;5470790;26;19995;-68
2024/04/12 11:59:32;;;;;;;12.05;6.50;;;23.20;80.50;;;;;;5467410;26;20431;-69
2024/04/12 12:01:59;;;;;;;9.93;5.72;;;23.30;79.90;;;;;;5446919;26;19998;-69
2024/04/12 12:04:29;;;;;;;8.63;5.93;;;23.40;79.90;;;;;;5481840;26;19998;-68
2024/04/12 12:06:55;;;;;;;9.15;5.22;;;23.50;80.10;;;;;;5476346;26;20053;-68
2024/04/12 12:09:21;;;;;;;10.43;6.78;;;23.60;79.40;;;;;;5477372;26;19999;-68
2024/04/12 12:11:50;;;;;;;9.90;6.00;;;23.70;78.80;;;;;;5475476;26;19999;-69
2024/04/12 12:14:16;;;;;;;7.95;5.63;;;23.90;79.10;;;;;;5456805;26;20610;-69
2024/04/12 12:16:42;;;;;;;8.35;6.05;;;24.00;78.00;;;;;;5453935;26;20456;-68
2024/04/12 12:19:08;;;;;;;12.70;5.60;;;24.30;77.40;;;;;;5477088;26;20467;-69
2024/04/12 12:21:34;;;;;;;14.45;6.68;;;24.50;77.20;;;;;;5472316;26;20325;-68
2024/04/12 12:24:00;;;;;;;13.13;6.63;;;24.80;77.10;;;;;;5466456;26;20004;-69
2024/04/12 12:26:26;;;;;;;12.48;6.72;;;24.80;76.40;;;;;;5470961;26;20002;-68
2024/04/12 12:28:51;;;;;;;13.10;6.43;;;25.00;75.70;;;;;;5469941;26;20003;-69
2024/04/12 12:31:18;;;;;;;12.95;6.72;;;25.10;75.10;;;;;;5483685;26;20002;-69
2024/04/12 12:33:49;;;;;;;16.38;6.28;;;25.20;75.50;;;;;;5482417;26;19998;-69
2024/04/12 12:36:16;;;;;;;9.27;6.05;;;25.40;76.10;;;;;;5464459;26;20444;-69
2024/04/12 12:38:43;;;;;;;11.38;7.32;;;25.80;75.10;;;;;;5483227;26;20480;-69
2024/04/12 12:41:09;;;;;;;13.77;7.55;;;26.10;73.40;;;;;;5461735;26;20006;-69
2024/04/12 12:43:36;;;;;;;11.48;5.93;;;26.10;72.60;;;;;;5467473;26;20013;-69
2024/04/12 12:46:02;;;;;;;10.95;6.78;;;26.40;73.00;;;;;;5472047;26;20446;-69
2024/04/12 12:48:27;;;;;;;16.17;6.55;;;26.90;72.10;;;;;;5455974;26;19991;-69
2024/04/12 12:50:54;;;;;;;8.70;6.97;;;27.30;71.70;;;;;;5476862;26;20450;-69
2024/04/12 12:53:22;;;;;;;15.90;5.97;;;27.50;70.60;;;;;;5482853;26;19998;-69
2024/04/12 12:55:51;;;;;;;16.08;4.88;;;27.60;71.30;;;;;;5479534;26;19994;-69
2024/04/12 12:58:24;;;;;;;14.52;7.68;;;27.60;72.00;;;;;;5471238;26;20365;-69
2024/04/12 13:00:50;;;;;;;8.73;6.47;;;27.50;70.70;;;;;;5470845;26;20001;-69
2024/04/12 13:03:25;;;;;;;24.25;7.13;;;27.00;70.50;;;;;;5482527;26;20077;-67
2024/04/12 13:05:52;;;;;;;12.02;6.35;;;26.90;71.30;;;;;;5475496;26;20003;-68
2024/04/12 13:08:19;;;;;;;12.52;6.60;;;26.80;71.50;;;;;;5469585;26;20002;-72
2024/04/12 13:10:48;;;;;;;14.90;8.02;;;26.90;71.30;;;;;;5474652;26;20017;-71
2024/04/12 13:13:21;;;;;;;12.32;7.20;;;26.50;70.10;;;;;;5477157;26;20007;-68
2024/04/12 13:15:57;;;;;;;15.00;8.23;;;26.40;71.20;;;;;;5460917;26;20381;-68
2024/04/12 13:18:27;;;;;;;20.10;8.25;;;26.00;70.60;;;;;;5480062;26;20018;-68
2024/04/12 13:20:54;;;;;;;17.40;9.02;;;25.70;70.80;;;;;;5481607;26;20040;-67
2024/04/12 13:23:24;;;;;;;24.33;8.93;;;25.50;70.90;;;;;;5463000;26;20408;-70
2024/04/12 13:25:50;;;;;;;;;;;25.30;70.40;;;;;;5468598;26;20431;-69
2024/04/12 13:28:17;;;;;;;19.55;8.35;;;25.40;71.30;;;;;;5469988;26;19932;-67
2024/04/12 13:30:43;;;;;;;16.67;8.60;;;25.40;70.80;;;;;;5471555;26;19995;-68
2024/04/12 13:33:09;;;;;;;17.70;8.40;;;25.50;70.60;;;;;;5477424;26;20338;-68
2024/04/12 13:35:40;;;;;;;16.02;7.93;;;25.50;70.90;;;;;;5474388;26;20011;-68
2024/04/12 13:38:15;;;;;;;14.52;6.05;;;25.70;71.20;;;;;;5456803;26;19995;-68
2024/04/12 13:40:45;;;;;;;18.52;7.10;;;25.80;70.40;;;;;;5444368;26;20343;-69
2024/04/12 13:43:14;;;;;;;15.40;6.78;;;25.70;70.90;;;;;;5469667;26;20010;-68
2024/04/12 13:51:20;;;;;;;13.05;6.05;;;25.40;70.20;;;;;;5472417;26;20071;-68
2024/04/12 13:53:50;;;;;;;11.18;5.85;;;25.40;70.10;;;;;;5453272;26;20482;-68
2024/04/12 13:56:19;;;;;;;11.45;5.78;;;25.40;69.70;;;;;;5457547;26;20009;-68
2024/04/12 13:58:53;;;;;;;12.75;5.60;;;25.50;70.50;;;;;;5475715;26;20029;-68
2024/04/12 14:01:40;;;;;;;13.75;5.28;;;25.50;69.30;;;;;;5482276;26;20026;-68
2024/04/12 14:04:09;;;;;;;7.82;4.20;;;25.70;68.60;;;;;;5463177;26;20327;-68
2024/04/12 14:06:38;;;;;;;13.80;5.00;;;25.60;70.10;;;;;;5473098;26;20770;-68
2024/04/12 14:09:09;;;;;;;11.80;4.57;;;25.70;70.20;;;;;;5480425;26;20005;-68
2024/04/12 14:11:38;;;;;;;11.98;4.30;;;25.60;70.30;;;;;;5478265;26;19995;-68
2024/04/12 14:14:04;;;;;;;8.68;4.53;;;25.30;69.50;;;;;;5468539;26;20002;-68
2024/04/12 14:16:32;;;;;;;9.85;4.10;;;25.20;68.70;;;;;;5462273;26;20070;-68
2024/04/12 14:18:59;;;;;;;10.13;4.53;;;24.90;68.50;;;;;;5487166;26;20002;-68
2024/04/12 14:21:26;;;;;;;9.13;3.95;;;24.80;68.80;;;;;;5469140;26;20499;-68
2024/04/12 14:23:52;;;;;;;8.43;4.35;;;25.00;69.50;;;;;;5467709;26;20069;-68
2024/04/12 14:26:17;;;;;;;11.43;3.95;;;24.90;68.80;;;;;;5486557;26;20365;-68
2024/04/12 14:28:44;;;;;;;9.05;3.95;;;24.60;69.30;;;;;;5477117;26;20096;-68
2024/04/12 14:31:10;;;;;;;7.35;4.35;;;24.60;69.50;;;;;;5465842;26;20382;-69
2024/04/12 14:33:38;;;;;;;10.48;4.25;;;24.60;69.70;;;;;;5482457;26;20443;-69
2024/04/12 14:36:05;;;;;;;7.95;3.17;;;24.70;69.10;;;;;;5478813;26;20016;-68
2024/04/12 14:38:31;;;;;;;8.18;3.00;;;24.80;69.20;;;;;;5486318;26;19994;-70
2024/04/12 14:41:03;;;;;;;5.82;3.08;;;24.80;69.00;;;;;;5476682;26;20346;-71
2024/04/12 14:43:29;;;;;;;9.10;3.65;;;24.60;69.40;;;;;;5457539;26;19991;-70
2024/04/12 14:45:55;;;;;;;6.47;3.38;;;24.70;69.10;;;;;;5469923;26;20066;-71
2024/04/12 14:48:20;;;;;;;6.25;3.20;;;25.00;69.20;;;;;;5477166;26;20010;-71
2024/04/12 14:50:48;;;;;;;8.32;3.55;;;25.00;68.60;;;;;;5484802;26;19998;-70
2024/04/12 14:53:17;;;;;;;7.40;3.08;;;24.90;68.20;;;;;;5475542;26;19998;-71